Time;durP1;ratioP1;P1;durP2;ratioP2;P2;SDS_P1;SDS_P2;PMS_P1;PMS_P2;Temp;Humidity;BMP_temperature;BMP_pressure;BME280_temperature;BME280_humidity;BME280_pressure;Samples;Min_cycle;Max_cycle;Signal;HPM_P1;HPM_P2
2022/05/15 00:01:07;;;;;;;0.95;0.70;;;18.80;99.90;;;;;;4987802;28;20030;-73
2022/05/15 00:03:34;;;;;;;5.10;1.27;;;18.80;99.90;;;;;;4984803;28;20111;-75
2022/05/15 00:06:04;;;;;;;2.17;1.10;;;18.80;99.90;;;;;;4986539;28;20108;-70
2022/05/15 00:08:34;;;;;;;1.52;0.95;;;18.90;99.90;;;;;;4987159;28;20076;-74
2022/05/15 00:11:02;;;;;;;2.08;1.25;;;18.90;99.90;;;;;;4986478;28;20065;-70
2022/05/15 00:13:31;;;;;;;1.42;0.90;;;19.00;99.90;;;;;;4985615;28;20030;-70
2022/05/15 00:15:59;;;;;;;1.85;1.35;;;19.00;99.90;;;;;;4985856;28;20106;-74
2022/05/15 00:18:27;;;;;;;3.95;1.27;;;19.10;99.90;;;;;;4985764;28;20030;-74
2022/05/15 00:20:55;;;;;;;3.00;1.48;;;19.10;99.90;;;;;;4987511;28;20014;-70
2022/05/15 00:23:24;;;;;;;1.77;1.40;;;19.20;99.90;;;;;;4986245;28;20022;-74
2022/05/15 00:25:51;;;;;;;3.05;1.25;;;19.20;99.90;;;;;;4985215;28;20034;-70
2022/05/15 00:28:19;;;;;;;3.88;1.40;;;19.30;99.90;;;;;;4986252;28;20030;-74
2022/05/15 00:30:46;;;;;;;1.85;1.40;;;19.30;99.90;;;;;;4986628;28;20340;-70
2022/05/15 00:33:14;;;;;;;1.83;1.17;;;19.40;99.90;;;;;;4986670;28;20037;-76
2022/05/15 00:35:41;;;;;;;4.38;1.42;;;19.40;99.90;;;;;;4986258;28;20023;-74
2022/05/15 00:38:10;;;;;;;2.33;1.35;;;19.40;99.90;;;;;;4985026;28;20467;-75
2022/05/15 00:40:44;;;;;;;1.63;1.38;;;19.50;99.90;;;;;;4983776;28;20463;-74
2022/05/15 00:43:34;;;;;;;3.33;1.77;;;19.50;99.90;;;;;;4985177;28;20364;-77
2022/05/15 00:46:05;;;;;;;2.70;1.92;;;19.50;99.90;;;;;;4984662;28;20030;-74
2022/05/15 00:48:33;;;;;;;4.97;1.58;;;19.50;99.90;;;;;;4984657;28;20042;-75
2022/05/15 00:51:06;;;;;;;5.07;2.22;;;19.50;99.90;;;;;;4984984;28;20457;-75
2022/05/15 00:53:35;;;;;;;3.47;1.92;;;19.50;99.90;;;;;;4985048;28;20106;-75
2022/05/15 00:56:03;;;;;;;4.22;2.05;;;19.50;99.90;;;;;;4985159;28;20041;-74
2022/05/15 00:58:38;;;;;;;2.17;1.80;;;19.50;99.90;;;;;;4986536;28;20015;-73
2022/05/15 01:01:07;;;;;;;1.80;1.70;;;19.60;99.90;;;;;;4976699;28;20030;-73
2022/05/15 01:03:35;;;;;;;6.15;1.65;;;19.60;99.90;;;;;;4976802;28;20055;-74
2022/05/15 01:06:02;;;;;;;2.47;1.35;;;19.70;99.90;;;;;;4976337;28;20031;-73
2022/05/15 01:08:31;;;;;;;2.03;1.70;;;19.80;99.90;;;;;;4976277;28;20068;-73
2022/05/15 01:11:12;;;;;;;1.90;1.50;;;19.90;99.90;;;;;;4976403;28;20058;-71
2022/05/15 01:13:42;;;;;;;2.63;1.42;;;20.00;99.90;;;;;;4976357;28;20030;-71
2022/05/15 01:16:12;;;;;;;4.07;1.60;;;20.10;99.90;;;;;;4976204;28;20045;-74
2022/05/15 01:18:41;;;;;;;2.35;1.70;;;20.10;99.90;;;;;;4976207;28;20019;-75
2022/05/15 01:21:26;;;;;;;2.05;1.30;;;20.20;99.90;;;;;;4975440;28;20041;-77
2022/05/15 01:23:54;;;;;;;1.98;1.48;;;20.20;99.90;;;;;;4991863;28;20379;-76
2022/05/15 01:26:24;;;;;;;2.65;1.60;;;20.20;99.90;;;;;;4995306;28;20045;-77
2022/05/15 01:28:53;;;;;;;4.50;1.65;;;20.20;99.90;;;;;;4995019;28;20060;-76
2022/05/15 01:31:21;;;;;;;2.97;1.52;;;20.30;99.90;;;;;;4995224;28;20036;-71
2022/05/15 01:33:50;;;;;;;1.27;1.10;;;20.30;99.90;;;;;;4995123;28;20030;-76
2022/05/15 01:36:21;;;;;;;1.85;1.48;;;20.20;99.90;;;;;;4995313;28;20479;-71
2022/05/15 01:38:48;;;;;;;1.92;1.20;;;20.20;99.90;;;;;;4994689;28;20105;-71
2022/05/15 01:41:16;;;;;;;1.48;1.10;;;20.30;99.90;;;;;;4984537;28;20053;-75
2022/05/15 01:43:47;;;;;;;1.88;1.35;;;20.30;99.90;;;;;;4984191;28;20083;-76
2022/05/15 01:46:15;;;;;;;2.50;1.20;;;20.30;99.90;;;;;;4984049;28;20537;-75
2022/05/15 01:48:43;;;;;;;2.10;1.33;;;20.30;99.90;;;;;;4994888;28;20038;-75
2022/05/15 01:51:10;;;;;;;1.40;1.10;;;20.30;99.90;;;;;;4993866;28;20423;-74
2022/05/15 01:53:39;;;;;;;2.65;1.27;;;20.30;99.90;;;;;;4994803;28;20069;-75
2022/05/15 01:56:07;;;;;;;1.48;1.08;;;20.30;99.90;;;;;;4994197;28;20072;-75
2022/05/15 01:58:35;;;;;;;2.17;1.35;;;20.40;99.90;;;;;;4994801;28;20036;-72
2022/05/15 02:01:03;;;;;;;3.08;1.38;;;20.50;99.90;;;;;;4992612;28;20356;-77
2022/05/15 02:03:31;;;;;;;6.07;1.70;;;20.60;99.90;;;;;;4977372;28;20038;-74
2022/05/15 02:05:59;;;;;;;4.50;1.45;;;20.60;99.90;;;;;;4975560;28;20383;-74
2022/05/15 02:08:30;;;;;;;3.17;1.20;;;20.60;99.90;;;;;;4975034;28;20070;-74
2022/05/15 02:11:00;;;;;;;3.72;1.67;;;20.70;99.90;;;;;;4975235;28;20015;-74
2022/05/15 02:13:28;;;;;;;3.22;1.50;;;20.70;99.90;;;;;;4979248;28;20026;-75
2022/05/15 02:15:56;;;;;;;2.03;1.30;;;20.70;99.90;;;;;;4983539;28;20034;-74
2022/05/15 02:18:24;;;;;;;1.35;0.95;;;20.80;99.90;;;;;;4983261;28;20050;-74
2022/05/15 02:20:52;;;;;;;2.80;1.33;;;20.80;99.90;;;;;;4984206;28;20033;-74
2022/05/15 02:23:21;;;;;;;2.13;1.40;;;20.90;99.90;;;;;;4985056;28;20049;-71
2022/05/15 02:25:48;;;;;;;2.45;1.52;;;20.90;99.90;;;;;;4981647;28;20030;-70
2022/05/15 02:28:16;;;;;;;2.25;1.40;;;20.90;99.90;;;;;;4981478;28;20110;-70
2022/05/15 02:30:44;;;;;;;1.65;1.30;;;21.00;99.90;;;;;;4982850;28;20060;-74
2022/05/15 02:33:12;;;;;;;1.85;1.38;;;21.10;99.90;;;;;;4981609;28;20026;-72
2022/05/15 02:35:40;;;;;;;4.75;1.20;;;21.20;99.90;;;;;;4981468;28;20586;-70
2022/05/15 02:38:07;;;;;;;3.50;1.60;;;21.30;99.90;;;;;;4982132;28;20077;-70
2022/05/15 02:40:35;;;;;;;4.43;1.40;;;21.30;99.90;;;;;;4983171;28;20030;-70
2022/05/15 02:43:03;;;;;;;2.60;1.13;;;21.30;99.90;;;;;;4984921;28;20028;-70
2022/05/15 02:45:31;;;;;;;1.48;1.13;;;21.30;99.90;;;;;;4983477;28;20090;-71
2022/05/15 02:47:58;;;;;;;1.65;1.13;;;21.30;99.90;;;;;;4977897;28;20034;-75
2022/05/15 02:53:11;;;;;;;;;;;21.30;99.90;;;;;;4978145;28;20073;-75
2022/05/15 02:55:39;;;;;;;1.95;1.17;;;21.20;99.90;;;;;;4987937;28;19916;-74
2022/05/15 02:58:07;;;;;;;1.70;1.40;;;21.20;99.90;;;;;;4991818;28;20323;-70
2022/05/15 03:00:34;;;;;;;1.90;1.17;;;21.20;99.90;;;;;;4991671;28;20031;-71
2022/05/15 03:03:02;;;;;;;1.77;1.10;;;21.10;99.90;;;;;;4991487;28;20086;-71
2022/05/15 03:05:30;;;;;;;3.53;1.20;;;21.10;99.90;;;;;;4991946;28;20027;-71
2022/05/15 03:08:00;;;;;;;1.88;0.98;;;21.10;99.90;;;;;;4991728;28;20491;-71
2022/05/15 03:10:28;;;;;;;2.13;0.90;;;21.00;99.90;;;;;;4991752;28;20034;-74
2022/05/15 03:12:56;;;;;;;4.20;1.00;;;21.00;99.90;;;;;;4992385;28;20522;-71
2022/05/15 03:15:23;;;;;;;1.75;1.00;;;21.00;99.90;;;;;;4992333;28;20022;-73
2022/05/15 03:18:11;;;;;;;2.42;0.90;;;21.10;99.90;;;;;;4992261;28;20372;-75
2022/05/15 03:20:39;;;;;;;2.15;0.90;;;21.00;99.90;;;;;;4992736;28;20048;-73
2022/05/15 03:23:07;;;;;;;3.85;1.08;;;21.10;99.90;;;;;;4993250;28;20475;-70
2022/05/15 03:25:35;;;;;;;1.65;0.95;;;21.00;99.90;;;;;;4993814;28;20026;-71
2022/05/15 03:28:04;;;;;;;2.85;0.90;;;21.10;99.90;;;;;;4993643;28;20038;-71
2022/05/15 03:30:32;;;;;;;0.95;0.80;;;21.10;99.90;;;;;;4993522;28;20494;-70
2022/05/15 03:33:00;;;;;;;1.25;0.70;;;21.10;99.90;;;;;;4993711;28;20486;-74
2022/05/15 03:35:27;;;;;;;2.05;0.80;;;21.10;99.90;;;;;;4993552;28;20019;-74
2022/05/15 03:37:55;;;;;;;2.80;1.20;;;21.10;99.90;;;;;;4993836;28;20023;-75
2022/05/15 03:40:23;;;;;;;1.52;0.93;;;21.00;99.90;;;;;;4993594;28;20024;-71
2022/05/15 03:42:51;;;;;;;4.25;1.02;;;21.00;99.90;;;;;;4992388;28;20076;-71
2022/05/15 03:45:18;;;;;;;1.40;0.70;;;21.00;99.90;;;;;;4993491;28;20434;-75
2022/05/15 03:47:49;;;;;;;2.03;0.90;;;21.00;99.90;;;;;;4993705;28;20064;-75
2022/05/15 03:50:17;;;;;;;0.98;0.70;;;21.00;99.90;;;;;;4993328;28;20074;-75
2022/05/15 03:52:45;;;;;;;2.95;0.98;;;21.00;99.90;;;;;;4993484;28;20035;-71
2022/05/15 03:55:14;;;;;;;2.60;0.70;;;21.00;99.90;;;;;;4993592;28;20022;-75
2022/05/15 03:57:42;;;;;;;1.50;0.77;;;21.00;99.90;;;;;;4993499;28;20022;-74
2022/05/15 04:00:15;;;;;;;3.42;1.15;;;21.00;99.90;;;;;;4993779;28;20023;-74
2022/05/15 04:02:44;;;;;;;0.90;0.73;;;21.00;99.90;;;;;;4993486;28;20049;-75
2022/05/15 04:05:12;;;;;;;2.00;0.80;;;21.00;99.90;;;;;;4993483;28;20015;-74
2022/05/15 04:07:46;;;;;;;0.90;0.75;;;21.00;99.90;;;;;;4993311;28;20130;-74
2022/05/15 04:10:16;;;;;;;3.13;1.10;;;21.00;99.90;;;;;;4993377;28;20482;-72
2022/05/15 04:12:44;;;;;;;3.45;0.98;;;21.00;99.90;;;;;;4993397;28;20027;-74
2022/05/15 04:15:13;;;;;;;1.08;0.70;;;20.90;99.90;;;;;;4994597;28;20031;-74
2022/05/15 04:17:43;;;;;;;1.38;0.85;;;20.90;99.90;;;;;;4996879;28;20467;-75
2022/05/15 04:20:13;;;;;;;1.17;0.80;;;20.90;99.90;;;;;;4996819;28;20026;-74
2022/05/15 04:22:41;;;;;;;1.52;0.90;;;20.90;99.90;;;;;;4996889;28;20429;-74
2022/05/15 04:25:11;;;;;;;1.48;0.93;;;20.90;99.90;;;;;;4996554;28;20081;-75
2022/05/15 04:27:40;;;;;;;2.13;0.95;;;21.00;99.90;;;;;;4996771;28;20109;-71
2022/05/15 04:30:10;;;;;;;1.30;0.82;;;21.00;99.90;;;;;;4996336;28;20027;-74
2022/05/15 04:32:38;;;;;;;1.83;1.13;;;20.90;99.90;;;;;;4995396;28;20022;-75
2022/05/15 04:35:07;;;;;;;1.92;1.00;;;21.00;99.90;;;;;;4996397;28;20058;-74
2022/05/15 04:37:35;;;;;;;1.80;0.80;;;21.00;99.90;;;;;;4996593;28;20023;-70
2022/05/15 04:40:03;;;;;;;1.05;0.93;;;20.90;99.90;;;;;;4996494;28;20040;-70
2022/05/15 04:42:31;;;;;;;1.98;0.93;;;21.00;99.90;;;;;;4996358;28;20026;-70
2022/05/15 04:44:58;;;;;;;1.30;1.00;;;20.90;99.90;;;;;;4996249;28;20030;-75
2022/05/15 04:47:26;;;;;;;1.52;0.75;;;21.00;99.90;;;;;;4996120;28;20034;-72
2022/05/15 04:49:55;;;;;;;3.90;1.20;;;21.00;99.90;;;;;;4995857;28;20046;-70
2022/05/15 04:52:22;;;;;;;3.58;1.15;;;21.00;99.90;;;;;;4996364;28;20037;-70
2022/05/15 04:54:50;;;;;;;1.10;0.70;;;21.00;99.90;;;;;;4995951;28;20479;-71
2022/05/15 04:57:18;;;;;;;1.80;1.10;;;21.10;99.90;;;;;;4996068;28;20034;-71
2022/05/15 04:59:46;;;;;;;2.55;1.00;;;21.10;99.90;;;;;;4996096;28;20022;-75
2022/05/15 05:02:13;;;;;;;2.17;0.82;;;21.00;99.90;;;;;;4996063;28;20487;-75
2022/05/15 05:04:41;;;;;;;5.22;1.20;;;21.00;99.90;;;;;;4996018;28;20026;-74
2022/05/15 05:07:09;;;;;;;2.15;1.00;;;21.00;99.90;;;;;;4996589;28;20042;-75
2022/05/15 05:09:36;;;;;;;1.52;1.00;;;20.90;99.90;;;;;;4995742;28;20032;-71
2022/05/15 05:12:04;;;;;;;2.03;0.85;;;21.00;99.90;;;;;;4995636;28;20026;-75
2022/05/15 05:14:32;;;;;;;2.00;1.00;;;21.00;99.90;;;;;;4995306;28;20521;-74
2022/05/15 05:17:00;;;;;;;1.00;0.70;;;21.00;99.90;;;;;;4995635;28;20042;-73
2022/05/15 05:19:27;;;;;;;1.10;0.90;;;20.90;99.90;;;;;;4995629;28;20034;-74
2022/05/15 05:21:55;;;;;;;4.18;1.20;;;20.90;99.90;;;;;;4995758;28;20069;-75
2022/05/15 05:24:23;;;;;;;3.33;0.77;;;20.90;99.90;;;;;;4995800;28;20204;-74
2022/05/15 05:26:51;;;;;;;1.95;0.93;;;20.90;99.90;;;;;;4994916;28;20041;-75
2022/05/15 05:29:18;;;;;;;1.75;0.80;;;20.90;99.90;;;;;;4995463;28;20439;-75
2022/05/15 05:31:46;;;;;;;0.85;0.68;;;20.80;99.90;;;;;;4995524;28;20022;-75
2022/05/15 05:34:14;;;;;;;2.65;0.90;;;20.80;99.90;;;;;;4995417;28;20479;-75
2022/05/15 05:36:42;;;;;;;2.58;1.15;;;20.80;99.90;;;;;;4995330;28;20033;-75
2022/05/15 05:39:10;;;;;;;5.03;1.23;;;20.80;99.90;;;;;;4995173;28;20034;-74
2022/05/15 05:41:37;;;;;;;0.90;0.60;;;20.70;99.90;;;;;;4995457;28;20026;-75
2022/05/15 05:44:05;;;;;;;1.45;0.95;;;20.70;99.90;;;;;;4995365;28;20026;-75
2022/05/15 05:46:33;;;;;;;1.70;0.65;;;20.80;99.90;;;;;;4995106;28;20030;-75
2022/05/15 05:49:01;;;;;;;2.22;1.17;;;20.70;99.90;;;;;;4995007;28;20080;-75
2022/05/15 05:51:29;;;;;;;2.05;1.00;;;20.80;99.90;;;;;;4995219;28;20105;-75
2022/05/15 05:53:57;;;;;;;2.55;1.25;;;20.70;99.90;;;;;;4995029;28;20036;-75
2022/05/15 05:56:24;;;;;;;2.08;0.90;;;20.70;99.90;;;;;;4994797;28;20030;-74
2022/05/15 05:58:52;;;;;;;1.98;1.20;;;20.70;99.90;;;;;;4995060;28;20494;-71
2022/05/15 06:01:20;;;;;;;2.35;1.17;;;20.70;99.90;;;;;;4994970;28;20045;-74
2022/05/15 06:06:33;;;;;;;2.08;1.17;;;20.70;99.90;;;;;;4995261;28;20028;-74
2022/05/15 06:09:01;;;;;;;2.05;1.35;;;20.60;99.90;;;;;;4994617;28;20034;-74
2022/05/15 06:11:29;;;;;;;2.40;1.65;;;20.60;99.90;;;;;;4994807;28;20019;-75
2022/05/15 06:13:56;;;;;;;1.85;1.48;;;20.60;99.90;;;;;;4994734;28;20102;-74
2022/05/15 06:16:25;;;;;;;2.97;1.85;;;20.60;99.90;;;;;;4994387;28;20034;-75
2022/05/15 06:18:53;;;;;;;2.42;1.92;;;20.60;99.90;;;;;;4994695;28;20535;-75
2022/05/15 06:21:20;;;;;;;3.45;2.25;;;20.60;99.90;;;;;;4994487;28;20041;-73
2022/05/15 06:23:48;;;;;;;3.35;2.28;;;20.60;99.90;;;;;;4994541;28;20113;-75
2022/05/15 06:26:16;;;;;;;3.20;2.15;;;20.60;99.90;;;;;;4994275;28;20031;-74
2022/05/15 06:28:43;;;;;;;2.40;1.35;;;20.60;99.90;;;;;;4994108;28;20043;-74
2022/05/15 06:31:11;;;;;;;4.75;1.58;;;20.60;99.90;;;;;;4994440;28;20375;-74
2022/05/15 06:33:39;;;;;;;2.35;1.55;;;20.50;99.90;;;;;;4994419;28;20018;-75
2022/05/15 06:36:07;;;;;;;1.90;1.58;;;20.50;99.90;;;;;;4994357;28;20510;-75
2022/05/15 06:38:34;;;;;;;2.85;2.00;;;20.60;99.90;;;;;;4993667;28;20395;-70
2022/05/15 06:41:06;;;;;;;2.63;1.42;;;20.60;99.90;;;;;;4994164;28;20093;-75
2022/05/15 06:43:34;;;;;;;3.33;1.83;;;20.60;99.90;;;;;;4994109;28;20027;-75
2022/05/15 06:46:02;;;;;;;3.05;1.60;;;20.50;99.90;;;;;;4994097;28;20045;-70
2022/05/15 06:48:29;;;;;;;3.20;1.48;;;20.50;99.90;;;;;;4994031;28;20038;-74
2022/05/15 06:50:59;;;;;;;2.53;1.25;;;20.40;99.90;;;;;;4994072;28;20052;-74
2022/05/15 06:53:27;;;;;;;7.30;1.80;;;20.40;99.90;;;;;;4994285;28;20105;-75
2022/05/15 06:58:40;;;;;;;3.58;1.70;;;20.30;99.90;;;;;;4994582;28;20161;-70
2022/05/15 07:01:09;;;;;;;2.00;1.38;;;20.30;99.90;;;;;;4994096;28;20041;-70
2022/05/15 07:03:37;;;;;;;2.65;1.63;;;20.20;99.90;;;;;;4993911;28;20100;-70
2022/05/15 07:06:06;;;;;;;1.30;1.10;;;20.20;99.90;;;;;;4993987;28;20468;-75
2022/05/15 07:08:34;;;;;;;1.77;1.55;;;20.20;99.90;;;;;;4993740;28;20066;-75
2022/05/15 07:11:01;;;;;;;7.38;1.77;;;20.20;99.90;;;;;;4993911;28;20034;-75
2022/05/15 07:13:29;;;;;;;6.78;1.63;;;20.10;99.90;;;;;;4994073;28;20116;-75
2022/05/15 07:15:57;;;;;;;4.78;2.20;;;20.10;99.90;;;;;;4993872;28;20022;-73
2022/05/15 07:18:25;;;;;;;4.38;1.52;;;20.10;99.90;;;;;;4994102;28;20467;-75
2022/05/15 07:20:53;;;;;;;2.70;1.70;;;20.10;99.90;;;;;;4993933;28;20030;-71
2022/05/15 07:23:22;;;;;;;2.15;1.63;;;20.10;99.90;;;;;;4993895;28;20054;-72
2022/05/15 07:25:50;;;;;;;1.73;1.25;;;20.10;99.90;;;;;;4993796;28;20069;-76
2022/05/15 07:28:18;;;;;;;1.92;1.55;;;20.00;99.90;;;;;;4993789;28;20122;-75
2022/05/15 07:30:46;;;;;;;5.93;2.33;;;20.00;99.90;;;;;;4993816;28;20074;-75
2022/05/15 07:33:13;;;;;;;3.58;1.88;;;20.00;99.90;;;;;;4993500;28;20054;-72
2022/05/15 07:35:41;;;;;;;5.63;2.00;;;20.00;99.90;;;;;;4993778;28;20019;-70
2022/05/15 07:38:09;;;;;;;3.40;2.45;;;20.00;99.90;;;;;;4993652;28;20077;-74
2022/05/15 07:40:37;;;;;;;5.25;2.53;;;20.00;99.90;;;;;;4993690;28;20538;-70
2022/05/15 07:43:09;;;;;;;4.72;2.17;;;20.10;99.90;;;;;;4993758;28;20035;-77
2022/05/15 07:45:37;;;;;;;7.95;2.22;;;20.00;99.90;;;;;;4993654;28;20027;-75
2022/05/15 07:48:06;;;;;;;7.55;2.40;;;20.00;99.90;;;;;;4993728;28;20034;-74
2022/05/15 07:50:35;;;;;;;5.63;2.22;;;19.90;99.90;;;;;;4996705;28;20133;-70
2022/05/15 07:53:03;;;;;;;4.45;2.08;;;19.90;99.90;;;;;;4997480;28;20023;-75
2022/05/15 07:55:31;;;;;;;3.47;2.10;;;19.90;99.90;;;;;;4997288;28;20042;-75
2022/05/15 07:57:58;;;;;;;3.47;2.25;;;19.80;99.90;;;;;;4997350;28;20026;-71
2022/05/15 08:00:26;;;;;;;3.13;1.92;;;19.80;99.90;;;;;;4997343;28;20430;-75
2022/05/15 08:03:15;;;;;;;2.75;2.42;;;19.70;99.90;;;;;;4997247;28;20026;-74
2022/05/15 08:08:28;;;;;;;10.30;1.85;;;19.70;99.90;;;;;;4997446;28;20407;-70
2022/05/15 08:10:55;;;;;;;3.10;1.63;;;19.70;99.90;;;;;;4996965;28;20110;-74
2022/05/15 08:13:26;;;;;;;4.10;1.45;;;19.60;99.90;;;;;;4996978;28;20030;-70
2022/05/15 08:15:54;;;;;;;3.80;2.20;;;19.60;99.90;;;;;;4996670;28;20030;-74
2022/05/15 08:23:56;;;;;;;4.35;2.25;;;19.50;99.90;;;;;;4997179;28;20041;-77
2022/05/15 08:26:25;;;;;;;3.33;1.95;;;19.50;99.90;;;;;;4996768;28;20361;-77
2022/05/15 08:28:53;;;;;;;1.90;1.50;;;19.50;99.90;;;;;;4996502;28;20107;-74
2022/05/15 08:31:24;;;;;;;2.05;1.85;;;19.50;99.90;;;;;;4996680;28;20471;-74
2022/05/15 08:33:52;;;;;;;4.55;1.80;;;19.50;99.90;;;;;;4996783;28;20037;-74
2022/05/15 08:36:20;;;;;;;3.22;1.63;;;19.50;99.90;;;;;;4996548;28;20027;-74
2022/05/15 08:38:48;;;;;;;2.40;1.20;;;19.40;99.90;;;;;;4996435;28;20102;-74
2022/05/15 08:41:18;;;;;;;3.78;1.90;;;19.30;99.90;;;;;;4996622;28;20169;-74
2022/05/15 08:43:47;;;;;;;4.40;1.90;;;19.30;99.90;;;;;;4996628;28;20023;-69
2022/05/15 08:46:31;;;;;;;3.58;2.20;;;19.30;99.90;;;;;;4996423;28;20029;-70
2022/05/15 08:49:47;;;;;;;3.30;1.83;;;19.30;99.90;;;;;;4996072;28;20042;-70
2022/05/15 08:52:51;;;;;;;6.95;1.40;;;19.30;99.90;;;;;;4972186;28;20058;-70
2022/05/15 08:55:35;;;;;;;2.13;1.60;;;19.20;99.90;;;;;;4996148;28;20030;-70
2022/05/15 08:58:05;;;;;;;2.45;1.67;;;19.20;99.90;;;;;;4996239;28;20026;-70
2022/05/15 09:00:42;;;;;;;3.63;1.20;;;19.20;99.90;;;;;;4995380;28;20022;-70
2022/05/15 09:03:16;;;;;;;2.90;2.08;;;19.10;99.90;;;;;;4995973;28;20077;-70
2022/05/15 09:06:19;;;;;;;1.83;1.27;;;19.10;99.90;;;;;;4995907;28;20022;-70
2022/05/15 09:09:01;;;;;;;4.28;1.80;;;19.10;99.90;;;;;;4995949;28;20110;-75
2022/05/15 09:11:56;;;;;;;2.70;1.45;;;19.10;99.90;;;;;;4996081;28;20026;-69
2022/05/15 09:14:32;;;;;;;4.70;2.20;;;19.10;99.90;;;;;;4995724;28;20486;-74
2022/05/15 09:17:11;;;;;;;3.92;2.42;;;19.10;99.90;;;;;;4995945;28;20037;-70
2022/05/15 09:19:39;;;;;;;7.30;2.20;;;19.20;99.90;;;;;;4995867;28;20026;-70
2022/05/15 09:22:06;;;;;;;4.53;2.15;;;19.20;99.90;;;;;;4995700;28;20514;-75
2022/05/15 09:24:53;;;;;;;4.03;2.38;;;19.10;99.90;;;;;;4995563;28;20026;-71
2022/05/15 09:27:27;;;;;;;3.65;2.20;;;19.20;99.90;;;;;;4995601;28;20061;-70
2022/05/15 09:30:00;;;;;;;4.38;2.30;;;19.20;99.90;;;;;;4995515;28;20034;-70
2022/05/15 09:32:33;;;;;;;4.65;2.30;;;19.20;99.90;;;;;;4995489;28;20030;-70
2022/05/15 09:35:02;;;;;;;6.30;2.53;;;19.10;99.90;;;;;;4995362;28;20541;-70
2022/05/15 09:43:30;;;;;;;3.15;2.25;;;19.10;99.90;;;;;;4995866;28;20411;-70
2022/05/15 09:43:35;;;;;;;3.47;2.28;;;19.10;99.90;;;;;;4995158;28;20032;-70
2022/05/15 09:46:16;;;;;;;3.58;2.35;;;19.10;99.90;;;;;;4995194;28;20045;-70
2022/05/15 09:49:06;;;;;;;6.93;2.65;;;19.00;99.90;;;;;;4995150;28;20117;-75
2022/05/15 09:51:55;;;;;;;4.45;2.45;;;19.00;99.90;;;;;;4995096;28;20038;-71
2022/05/15 09:54:38;;;;;;;4.25;2.88;;;19.00;99.90;;;;;;4995055;28;20501;-70
2022/05/15 09:57:27;;;;;;;5.82;2.97;;;19.00;99.90;;;;;;4995156;28;20426;-75
2022/05/15 09:59:58;;;;;;;3.97;2.60;;;19.00;99.90;;;;;;4994979;28;20026;-70
2022/05/15 10:02:49;;;;;;;9.15;2.72;;;19.00;99.90;;;;;;4994979;28;20026;-75
2022/05/15 10:05:22;;;;;;;5.68;2.47;;;19.00;99.90;;;;;;4994852;28;20042;-70
2022/05/15 10:08:02;;;;;;;4.63;2.70;;;19.00;99.90;;;;;;4994777;28;20038;-70
2022/05/15 10:10:38;;;;;;;2.92;2.28;;;19.00;99.90;;;;;;4995006;28;20022;-70
2022/05/15 10:13:14;;;;;;;6.38;2.58;;;19.00;99.90;;;;;;4994801;28;20033;-70
2022/05/15 10:15:48;;;;;;;3.05;2.22;;;19.00;99.90;;;;;;4994548;28;20489;-70
2022/05/15 10:18:47;;;;;;;7.50;3.22;;;18.90;99.90;;;;;;4994800;28;20030;-75
2022/05/15 10:21:16;;;;;;;5.95;2.30;;;19.00;99.90;;;;;;4994815;28;20506;-75
2022/05/15 10:24:00;;;;;;;4.60;2.63;;;18.90;99.90;;;;;;4994718;28;20494;-71
2022/05/15 10:26:46;;;;;;;4.22;2.38;;;19.00;99.90;;;;;;4994715;28;20521;-70
2022/05/15 10:29:36;;;;;;;;;;;18.90;99.90;;;;;;4994874;28;20030;-75
2022/05/15 10:32:15;;;;;;;6.72;2.88;;;18.90;99.90;;;;;;4994702;28;19905;-70
2022/05/15 10:34:43;;;;;;;5.53;2.80;;;18.90;99.90;;;;;;4994402;28;20430;-70
2022/05/15 10:37:11;;;;;;;4.93;3.03;;;18.90;99.90;;;;;;4994517;28;20387;-70
2022/05/15 10:40:17;;;;;;;6.35;2.75;;;18.80;99.90;;;;;;4994449;28;20026;-75
2022/05/15 10:42:47;;;;;;;4.00;2.60;;;18.80;99.90;;;;;;4994847;28;20030;-70
2022/05/15 10:45:53;;;;;;;3.97;3.00;;;18.80;99.90;;;;;;4992959;28;20390;-70
2022/05/15 10:48:30;;;;;;;5.80;3.00;;;18.80;99.90;;;;;;4994366;28;20046;-70
2022/05/15 10:50:57;;;;;;;8.80;3.25;;;18.70;99.90;;;;;;4994355;28;20074;-70
2022/05/15 10:57:30;;;;;;;2.75;2.10;;;18.70;99.90;;;;;;4994247;28;20041;-70
2022/05/15 11:00:13;;;;;;;5.75;2.83;;;18.60;99.90;;;;;;4994153;28;20030;-70
2022/05/15 11:03:14;;;;;;;7.15;3.28;;;18.60;99.90;;;;;;4994496;28;20097;-70
2022/05/15 11:05:46;;;;;;;4.15;2.60;;;18.50;99.90;;;;;;4994248;28;20023;-70
2022/05/15 11:08:36;;;;;;;5.15;3.67;;;18.50;99.90;;;;;;4993921;28;20042;-70
2022/05/15 11:11:14;;;;;;;7.53;4.03;;;18.50;99.90;;;;;;4994057;28;20117;-70
2022/05/15 11:13:52;;;;;;;6.82;3.75;;;18.50;99.90;;;;;;4994010;28;20036;-70
2022/05/15 11:16:59;;;;;;;11.70;4.20;;;18.50;99.90;;;;;;4993773;28;20026;-75
2022/05/15 11:19:37;;;;;;;8.63;3.92;;;18.40;99.90;;;;;;4993851;28;20097;-70
2022/05/15 11:22:24;;;;;;;6.50;3.40;;;18.40;99.90;;;;;;4994085;28;20038;-70
2022/05/15 11:25:17;;;;;;;5.40;2.72;;;18.30;99.90;;;;;;4996529;28;20054;-70
2022/05/15 11:27:49;;;;;;;7.35;3.05;;;18.30;99.90;;;;;;4987738;28;20550;-70
2022/05/15 11:30:42;;;;;;;4.78;3.25;;;18.20;99.90;;;;;;4985897;28;20038;-70
2022/05/15 11:33:26;;;;;;;6.47;3.38;;;18.20;99.90;;;;;;4986143;28;20058;-73
2022/05/15 11:36:35;;;;;;;5.05;3.88;;;18.20;99.90;;;;;;4996694;28;20065;-73
2022/05/15 11:39:14;;;;;;;5.53;4.35;;;18.20;99.90;;;;;;4953098;29;20102;-74
2022/05/15 11:41:44;;;;;;;6.20;4.40;;;18.10;99.90;;;;;;4952120;29;20031;-74
2022/05/15 11:44:18;;;;;;;5.80;4.30;;;18.20;99.90;;;;;;4973569;28;20030;-75
2022/05/15 11:46:48;;;;;;;7.65;5.47;;;18.10;99.90;;;;;;4981328;28;20555;-71
2022/05/15 11:49:23;;;;;;;10.68;4.68;;;18.10;99.90;;;;;;4983602;28;20510;-70
2022/05/15 11:52:20;;;;;;;13.20;5.35;;;18.10;99.90;;;;;;4981017;28;20034;-70
2022/05/15 11:54:48;;;;;;;;;;;18.10;99.90;;;;;;4975127;28;20173;-71
2022/05/15 11:57:43;;;;;;;12.00;5.18;;;18.10;99.90;;;;;;4976165;28;19929;-70
2022/05/15 12:00:26;;;;;;;7.60;5.45;;;18.10;99.90;;;;;;4974958;28;20058;-72
2022/05/15 12:02:58;;;;;;;9.60;4.82;;;18.10;99.90;;;;;;4976094;28;20023;-70
2022/05/15 12:06:00;;;;;;;7.70;4.97;;;18.00;99.90;;;;;;4993462;28;20026;-72
2022/05/15 12:08:34;;;;;;;5.95;4.45;;;18.00;99.90;;;;;;4994859;28;20142;-74
2022/05/15 12:11:21;;;;;;;4.63;3.83;;;18.00;99.90;;;;;;4995230;28;20375;-70
2022/05/15 12:13:49;;;;;;;5.03;3.83;;;17.90;99.90;;;;;;4982552;28;20038;-74
2022/05/15 12:16:27;;;;;;;5.72;4.03;;;17.90;99.90;;;;;;4992614;28;20014;-71
2022/05/15 12:19:17;;;;;;;11.40;3.83;;;17.90;99.90;;;;;;4992774;28;20029;-71
2022/05/15 12:21:51;;;;;;;5.90;3.35;;;17.90;99.90;;;;;;4993082;28;20506;-71
2022/05/15 12:24:28;;;;;;;7.70;3.50;;;17.80;99.90;;;;;;4992884;28;20023;-72
2022/05/15 12:27:20;;;;;;;7.55;3.70;;;17.80;99.90;;;;;;4992493;28;20022;-70
2022/05/15 12:30:10;;;;;;;6.82;3.42;;;17.80;99.90;;;;;;4991979;28;20037;-71
2022/05/15 12:32:44;;;;;;;4.45;2.80;;;17.80;99.90;;;;;;4983445;28;20038;-70
2022/05/15 12:35:23;;;;;;;4.35;3.13;;;17.80;99.90;;;;;;4991711;28;20022;-75
2022/05/15 12:38:07;;;;;;;3.65;2.60;;;17.70;99.90;;;;;;4991672;28;20022;-70
2022/05/15 12:40:55;;;;;;;6.07;3.25;;;17.70;99.90;;;;;;4992371;28;20023;-75
2022/05/15 12:43:34;;;;;;;4.90;3.22;;;17.70;99.90;;;;;;4990592;28;20025;-75
2022/05/15 12:46:02;;;;;;;5.40;2.97;;;17.60;99.90;;;;;;4990064;28;20534;-71
2022/05/15 12:48:34;;;;;;;7.38;3.42;;;17.60;99.90;;;;;;4995402;28;20506;-75
2022/05/15 12:51:13;;;;;;;5.40;3.65;;;17.50;99.90;;;;;;4989118;28;20050;-75
2022/05/15 12:53:45;;;;;;;4.97;3.40;;;17.60;99.90;;;;;;4995253;28;20483;-71
2022/05/15 12:56:29;;;;;;;6.90;3.38;;;17.50;99.90;;;;;;4995505;28;20025;-74
2022/05/15 12:59:00;;;;;;;6.68;3.28;;;17.50;99.90;;;;;;4989403;28;20019;-74
2022/05/15 13:01:33;;;;;;;6.38;2.72;;;17.50;99.90;;;;;;4985125;28;20019;-70
2022/05/15 13:04:04;;;;;;;4.88;3.50;;;17.50;99.90;;;;;;4983794;28;20038;-71
2022/05/15 13:06:40;;;;;;;4.53;3.08;;;17.50;99.90;;;;;;4984239;28;20022;-71
2022/05/15 13:09:11;;;;;;;6.10;3.80;;;17.50;99.90;;;;;;4992134;28;20038;-76
2022/05/15 13:11:43;;;;;;;10.40;3.72;;;17.50;99.90;;;;;;4994367;28;20019;-75
2022/05/15 13:14:18;;;;;;;5.57;3.35;;;17.40;99.90;;;;;;4994633;28;20415;-70
2022/05/15 13:16:51;;;;;;;3.85;2.60;;;17.40;99.90;;;;;;4981462;28;20031;-76
2022/05/15 13:19:42;;;;;;;5.57;3.25;;;17.30;99.90;;;;;;4976211;28;20050;-70
2022/05/15 13:22:15;;;;;;;6.03;3.63;;;17.30;99.90;;;;;;4975518;28;20387;-75
2022/05/15 13:24:44;;;;;;;4.53;3.25;;;17.20;99.90;;;;;;4975948;28;20023;-70
2022/05/15 13:27:13;;;;;;;3.90;2.78;;;17.20;99.90;;;;;;4976012;28;20107;-70
2022/05/15 13:29:41;;;;;;;9.05;2.63;;;17.20;99.90;;;;;;4975910;28;20027;-76
2022/05/15 13:32:12;;;;;;;3.55;2.63;;;17.10;99.90;;;;;;4976109;28;20015;-75
2022/05/15 13:34:41;;;;;;;3.90;2.78;;;17.10;99.90;;;;;;4975679;28;20037;-75
2022/05/15 13:37:31;;;;;;;6.30;2.95;;;17.10;99.90;;;;;;4975679;28;20027;-74
2022/05/15 13:43:50;;;;;;;5.43;3.58;;;17.10;99.90;;;;;;4976377;28;20101;-75